sensor_id;sensor_type;location;lat;lon;timestamp;temperature;humidity
40960;DHT22;27842;52.272;8.052;2023-08-12T00:00:56;23.60;89.80
40960;DHT22;27842;52.272;8.052;2023-08-12T00:03:21;23.50;89.70
40960;DHT22;27842;52.272;8.052;2023-08-12T00:05:47;23.50;90.00
40960;DHT22;27842;52.272;8.052;2023-08-12T00:08:12;23.40;90.00
40960;DHT22;27842;52.272;8.052;2023-08-12T00:10:38;23.30;90.10
40960;DHT22;27842;52.272;8.052;2023-08-12T00:13:03;23.30;90.20
40960;DHT22;27842;52.272;8.052;2023-08-12T00:15:29;23.30;90.40
40960;DHT22;27842;52.272;8.052;2023-08-12T00:17:54;23.30;90.30
40960;DHT22;27842;52.272;8.052;2023-08-12T00:20:20;23.20;90.50
40960;DHT22;27842;52.272;8.052;2023-08-12T00:22:45;23.20;90.50
40960;DHT22;27842;52.272;8.052;2023-08-12T00:25:11;23.10;90.60
40960;DHT22;27842;52.272;8.052;2023-08-12T00:27:36;23.10;90.70
40960;DHT22;27842;52.272;8.052;2023-08-12T00:30:03;23.10;90.80
40960;DHT22;27842;52.272;8.052;2023-08-12T00:32:29;23.10;90.80
40960;DHT22;27842;52.272;8.052;2023-08-12T00:34:55;23.00;90.90
40960;DHT22;27842;52.272;8.052;2023-08-12T00:37:20;23.00;91.10
40960;DHT22;27842;52.272;8.052;2023-08-12T00:39:46;23.00;91.10
40960;DHT22;27842;52.272;8.052;2023-08-12T00:42:11;23.00;91.30
40960;DHT22;27842;52.272;8.052;2023-08-12T00:44:37;22.90;91.30
40960;DHT22;27842;52.272;8.052;2023-08-12T00:47:02;22.90;91.60
40960;DHT22;27842;52.272;8.052;2023-08-12T00:49:28;22.90;92.00
40960;DHT22;27842;52.272;8.052;2023-08-12T00:51:54;22.80;91.50
40960;DHT22;27842;52.272;8.052;2023-08-12T00:54:20;22.80;91.60
40960;DHT22;27842;52.272;8.052;2023-08-12T00:56:48;22.80;91.80
40960;DHT22;27842;52.272;8.052;2023-08-12T00:59:13;22.80;91.70
40960;DHT22;27842;52.272;8.052;2023-08-12T01:01:40;22.80;91.90
40960;DHT22;27842;52.272;8.052;2023-08-12T01:04:09;22.70;91.80
40960;DHT22;27842;52.272;8.052;2023-08-12T01:06:34;22.70;91.70
40960;DHT22;27842;52.272;8.052;2023-08-12T01:09:00;22.70;91.80
40960;DHT22;27842;52.272;8.052;2023-08-12T01:11:33;22.70;91.90
40960;DHT22;27842;52.272;8.052;2023-08-12T01:14:05;22.70;91.90
40960;DHT22;27842;52.272;8.052;2023-08-12T01:16:33;22.60;91.90
40960;DHT22;27842;52.272;8.052;2023-08-12T01:18:59;22.70;92.00
40960;DHT22;27842;52.272;8.052;2023-08-12T01:21:25;22.60;92.10
40960;DHT22;27842;52.272;8.052;2023-08-12T01:23:55;22.60;92.20
40960;DHT22;27842;52.272;8.052;2023-08-12T01:26:20;22.60;92.30
40960;DHT22;27842;52.272;8.052;2023-08-12T01:28:46;22.60;92.20
40960;DHT22;27842;52.272;8.052;2023-08-12T01:31:12;22.60;92.10
40960;DHT22;27842;52.272;8.052;2023-08-12T01:33:44;22.50;92.30
40960;DHT22;27842;52.272;8.052;2023-08-12T01:36:12;22.50;92.30
40960;DHT22;27842;52.272;8.052;2023-08-12T01:38:40;22.50;92.40
40960;DHT22;27842;52.272;8.052;2023-08-12T01:41:07;22.50;92.40
40960;DHT22;27842;52.272;8.052;2023-08-12T01:43:34;22.50;92.40
40960;DHT22;27842;52.272;8.052;2023-08-12T01:46:00;22.50;92.40
40960;DHT22;27842;52.272;8.052;2023-08-12T01:48:26;22.50;92.60
40960;DHT22;27842;52.272;8.052;2023-08-12T01:50:51;22.50;92.60
40960;DHT22;27842;52.272;8.052;2023-08-12T01:53:17;22.40;92.40
40960;DHT22;27842;52.272;8.052;2023-08-12T01:55:43;22.50;92.60
40960;DHT22;27842;52.272;8.052;2023-08-12T01:58:08;22.50;92.60
40960;DHT22;27842;52.272;8.052;2023-08-12T02:00:34;22.40;92.80
40960;DHT22;27842;52.272;8.052;2023-08-12T02:02:59;22.50;92.60
40960;DHT22;27842;52.272;8.052;2023-08-12T02:05:25;22.40;92.70
40960;DHT22;27842;52.272;8.052;2023-08-12T02:07:50;22.40;92.80
40960;DHT22;27842;52.272;8.052;2023-08-12T02:10:16;22.40;92.80
40960;DHT22;27842;52.272;8.052;2023-08-12T02:12:41;22.30;92.80
40960;DHT22;27842;52.272;8.052;2023-08-12T02:15:07;22.30;92.80
40960;DHT22;27842;52.272;8.052;2023-08-12T02:17:33;22.30;92.80
40960;DHT22;27842;52.272;8.052;2023-08-12T02:19:58;22.30;92.80
40960;DHT22;27842;52.272;8.052;2023-08-12T02:22:23;22.40;92.90
40960;DHT22;27842;52.272;8.052;2023-08-12T02:24:49;22.30;93.00
40960;DHT22;27842;52.272;8.052;2023-08-12T02:27:15;22.30;93.00
40960;DHT22;27842;52.272;8.052;2023-08-12T02:29:40;22.30;93.00
40960;DHT22;27842;52.272;8.052;2023-08-12T02:32:06;22.30;93.10
40960;DHT22;27842;52.272;8.052;2023-08-12T02:34:31;22.30;93.20
40960;DHT22;27842;52.272;8.052;2023-08-12T02:36:57;22.30;93.20
40960;DHT22;27842;52.272;8.052;2023-08-12T02:39:22;22.30;93.00
40960;DHT22;27842;52.272;8.052;2023-08-12T02:41:48;22.30;93.20
40960;DHT22;27842;52.272;8.052;2023-08-12T02:44:14;22.20;93.20
40960;DHT22;27842;52.272;8.052;2023-08-12T02:46:39;22.30;93.20
40960;DHT22;27842;52.272;8.052;2023-08-12T02:49:05;22.20;93.30
40960;DHT22;27842;52.272;8.052;2023-08-12T02:51:30;22.20;93.30
40960;DHT22;27842;52.272;8.052;2023-08-12T02:53:56;22.20;93.40
40960;DHT22;27842;52.272;8.052;2023-08-12T02:56:21;22.20;93.40
40960;DHT22;27842;52.272;8.052;2023-08-12T02:58:47;22.20;93.40
40960;DHT22;27842;52.272;8.052;2023-08-12T03:01:12;22.20;93.50
40960;DHT22;27842;52.272;8.052;2023-08-12T03:03:38;22.20;93.50
40960;DHT22;27842;52.272;8.052;2023-08-12T03:06:03;22.10;93.50
40960;DHT22;27842;52.272;8.052;2023-08-12T03:08:29;22.10;93.60
40960;DHT22;27842;52.272;8.052;2023-08-12T03:10:58;22.10;93.60
40960;DHT22;27842;52.272;8.052;2023-08-12T03:13:24;22.10;93.60
40960;DHT22;27842;52.272;8.052;2023-08-12T03:15:50;22.10;93.50
40960;DHT22;27842;52.272;8.052;2023-08-12T03:18:15;22.10;93.60
40960;DHT22;27842;52.272;8.052;2023-08-12T03:20:41;22.10;93.70
40960;DHT22;27842;52.272;8.052;2023-08-12T03:23:06;22.10;93.70
40960;DHT22;27842;52.272;8.052;2023-08-12T03:25:32;22.10;93.80
40960;DHT22;27842;52.272;8.052;2023-08-12T03:27:57;22.10;94.10
40960;DHT22;27842;52.272;8.052;2023-08-12T03:30:23;22.10;94.00
40960;DHT22;27842;52.272;8.052;2023-08-12T03:32:48;22.10;94.10
40960;DHT22;27842;52.272;8.052;2023-08-12T03:35:14;22.10;94.10
40960;DHT22;27842;52.272;8.052;2023-08-12T03:37:39;22.10;94.10
40960;DHT22;27842;52.272;8.052;2023-08-12T03:40:05;22.10;94.10
40960;DHT22;27842;52.272;8.052;2023-08-12T03:42:31;22.10;94.10
40960;DHT22;27842;52.272;8.052;2023-08-12T03:44:57;22.10;94.20
40960;DHT22;27842;52.272;8.052;2023-08-12T03:47:22;22.10;94.20
40960;DHT22;27842;52.272;8.052;2023-08-12T03:49:49;22.10;94.30
40960;DHT22;27842;52.272;8.052;2023-08-12T03:52:15;22.10;94.30
40960;DHT22;27842;52.272;8.052;2023-08-12T03:54:40;22.10;94.60
40960;DHT22;27842;52.272;8.052;2023-08-12T03:57:06;22.10;94.30
40960;DHT22;27842;52.272;8.052;2023-08-12T03:59:31;22.10;94.30
40960;DHT22;27842;52.272;8.052;2023-08-12T04:01:57;22.10;94.40
40960;DHT22;27842;52.272;8.052;2023-08-12T04:04:23;22.10;94.40
40960;DHT22;27842;52.272;8.052;2023-08-12T04:06:48;22.10;94.50
40960;DHT22;27842;52.272;8.052;2023-08-12T04:09:19;22.10;94.60
40960;DHT22;27842;52.272;8.052;2023-08-12T04:11:45;22.00;94.50
40960;DHT22;27842;52.272;8.052;2023-08-12T04:14:11;22.00;94.50
40960;DHT22;27842;52.272;8.052;2023-08-12T04:16:37;22.00;94.60
40960;DHT22;27842;52.272;8.052;2023-08-12T04:19:02;22.00;94.60
40960;DHT22;27842;52.272;8.052;2023-08-12T04:21:28;22.00;94.70
40960;DHT22;27842;52.272;8.052;2023-08-12T04:23:53;22.00;94.70
40960;DHT22;27842;52.272;8.052;2023-08-12T04:26:19;22.00;94.70
40960;DHT22;27842;52.272;8.052;2023-08-12T04:28:44;22.00;94.80
40960;DHT22;27842;52.272;8.052;2023-08-12T04:31:10;22.00;94.80
40960;DHT22;27842;52.272;8.052;2023-08-12T04:33:35;22.00;94.90
40960;DHT22;27842;52.272;8.052;2023-08-12T04:36:01;22.00;95.10
40960;DHT22;27842;52.272;8.052;2023-08-12T04:38:26;22.00;95.00
40960;DHT22;27842;52.272;8.052;2023-08-12T04:40:52;22.00;95.00
40960;DHT22;27842;52.272;8.052;2023-08-12T04:43:18;22.00;95.00
40960;DHT22;27842;52.272;8.052;2023-08-12T04:45:46;21.90;95.10
40960;DHT22;27842;52.272;8.052;2023-08-12T04:48:12;21.90;95.10
40960;DHT22;27842;52.272;8.052;2023-08-12T04:50:38;21.90;95.20
40960;DHT22;27842;52.272;8.052;2023-08-12T04:53:04;22.00;95.20
40960;DHT22;27842;52.272;8.052;2023-08-12T04:55:30;21.90;95.30
40960;DHT22;27842;52.272;8.052;2023-08-12T04:57:56;21.90;95.30
40960;DHT22;27842;52.272;8.052;2023-08-12T05:00:22;21.90;95.40
40960;DHT22;27842;52.272;8.052;2023-08-12T05:02:47;21.90;95.50
40960;DHT22;27842;52.272;8.052;2023-08-12T05:05:13;21.90;95.30
40960;DHT22;27842;52.272;8.052;2023-08-12T05:07:38;21.90;95.40
40960;DHT22;27842;52.272;8.052;2023-08-12T05:10:04;21.90;95.60
40960;DHT22;27842;52.272;8.052;2023-08-12T05:12:29;21.90;95.60
40960;DHT22;27842;52.272;8.052;2023-08-12T05:14:55;21.80;95.50
40960;DHT22;27842;52.272;8.052;2023-08-12T05:17:20;21.90;95.80
40960;DHT22;27842;52.272;8.052;2023-08-12T05:19:46;21.90;95.50
40960;DHT22;27842;52.272;8.052;2023-08-12T05:22:11;21.80;95.90
40960;DHT22;27842;52.272;8.052;2023-08-12T05:24:37;21.80;95.60
40960;DHT22;27842;52.272;8.052;2023-08-12T05:27:02;21.80;95.60
40960;DHT22;27842;52.272;8.052;2023-08-12T05:29:29;21.80;95.80
40960;DHT22;27842;52.272;8.052;2023-08-12T05:31:55;21.80;97.30
40960;DHT22;27842;52.272;8.052;2023-08-12T05:34:20;21.80;96.10
40960;DHT22;27842;52.272;8.052;2023-08-12T05:36:46;21.80;96.10
40960;DHT22;27842;52.272;8.052;2023-08-12T05:39:11;21.80;96.00
40960;DHT22;27842;52.272;8.052;2023-08-12T05:41:37;21.80;96.10
40960;DHT22;27842;52.272;8.052;2023-08-12T05:44:02;21.80;96.20
40960;DHT22;27842;52.272;8.052;2023-08-12T05:46:30;21.80;96.00
40960;DHT22;27842;52.272;8.052;2023-08-12T05:48:55;21.80;97.90
40960;DHT22;27842;52.272;8.052;2023-08-12T05:51:21;21.80;96.50
40960;DHT22;27842;52.272;8.052;2023-08-12T05:53:46;21.80;96.50
40960;DHT22;27842;52.272;8.052;2023-08-12T05:56:12;21.80;96.60
40960;DHT22;27842;52.272;8.052;2023-08-12T05:58:38;21.80;96.00
40960;DHT22;27842;52.272;8.052;2023-08-12T06:01:03;21.80;96.10
40960;DHT22;27842;52.272;8.052;2023-08-12T06:03:29;21.80;96.00
40960;DHT22;27842;52.272;8.052;2023-08-12T06:05:54;21.90;96.30
40960;DHT22;27842;52.272;8.052;2023-08-12T06:08:20;21.90;96.30
40960;DHT22;27842;52.272;8.052;2023-08-12T06:10:45;21.90;97.00
40960;DHT22;27842;52.272;8.052;2023-08-12T06:13:11;21.90;96.20
40960;DHT22;27842;52.272;8.052;2023-08-12T06:15:36;21.90;96.20
40960;DHT22;27842;52.272;8.052;2023-08-12T06:18:02;22.00;96.20
40960;DHT22;27842;52.272;8.052;2023-08-12T06:20:27;21.90;96.20
40960;DHT22;27842;52.272;8.052;2023-08-12T06:22:53;21.90;96.30
40960;DHT22;27842;52.272;8.052;2023-08-12T06:25:19;22.00;96.30
40960;DHT22;27842;52.272;8.052;2023-08-12T06:27:45;22.00;96.30
40960;DHT22;27842;52.272;8.052;2023-08-12T06:30:11;22.00;96.30
40960;DHT22;27842;52.272;8.052;2023-08-12T06:32:36;22.00;96.40
40960;DHT22;27842;52.272;8.052;2023-08-12T06:35:02;22.00;96.30
40960;DHT22;27842;52.272;8.052;2023-08-12T06:37:27;22.10;96.40
40960;DHT22;27842;52.272;8.052;2023-08-12T06:39:53;22.10;96.30
40960;DHT22;27842;52.272;8.052;2023-08-12T06:42:18;22.10;96.30
40960;DHT22;27842;52.272;8.052;2023-08-12T06:44:44;22.10;96.70
40960;DHT22;27842;52.272;8.052;2023-08-12T06:47:10;22.10;96.50
40960;DHT22;27842;52.272;8.052;2023-08-12T06:49:35;22.10;96.30
40960;DHT22;27842;52.272;8.052;2023-08-12T06:52:01;22.20;96.40
40960;DHT22;27842;52.272;8.052;2023-08-12T06:54:27;22.20;96.70
40960;DHT22;27842;52.272;8.052;2023-08-12T06:56:52;22.20;96.90
40960;DHT22;27842;52.272;8.052;2023-08-12T06:59:18;22.20;96.50
40960;DHT22;27842;52.272;8.052;2023-08-12T07:01:43;22.20;96.90
40960;DHT22;27842;52.272;8.052;2023-08-12T07:04:09;22.20;97.10
40960;DHT22;27842;52.272;8.052;2023-08-12T07:06:34;22.20;97.30
40960;DHT22;27842;52.272;8.052;2023-08-12T07:09:00;22.20;96.80
40960;DHT22;27842;52.272;8.052;2023-08-12T07:11:25;22.20;97.10
40960;DHT22;27842;52.272;8.052;2023-08-12T07:13:51;22.20;96.70
40960;DHT22;27842;52.272;8.052;2023-08-12T07:16:16;22.30;96.80
40960;DHT22;27842;52.272;8.052;2023-08-12T07:18:42;22.30;96.90
40960;DHT22;27842;52.272;8.052;2023-08-12T07:21:07;22.30;96.80
40960;DHT22;27842;52.272;8.052;2023-08-12T07:23:33;22.40;96.90
40960;DHT22;27842;52.272;8.052;2023-08-12T07:25:58;22.30;96.80
40960;DHT22;27842;52.272;8.052;2023-08-12T07:28:24;22.30;96.90
40960;DHT22;27842;52.272;8.052;2023-08-12T07:30:49;22.30;96.80
40960;DHT22;27842;52.272;8.052;2023-08-12T07:33:15;22.30;96.80
40960;DHT22;27842;52.272;8.052;2023-08-12T07:35:41;22.30;96.90
40960;DHT22;27842;52.272;8.052;2023-08-12T07:38:06;22.30;96.70
40960;DHT22;27842;52.272;8.052;2023-08-12T07:40:32;22.30;97.00
40960;DHT22;27842;52.272;8.052;2023-08-12T07:42:57;22.30;96.90
40960;DHT22;27842;52.272;8.052;2023-08-12T07:45:23;22.30;97.10
40960;DHT22;27842;52.272;8.052;2023-08-12T07:47:49;22.30;96.90
40960;DHT22;27842;52.272;8.052;2023-08-12T07:50:14;22.30;96.90
40960;DHT22;27842;52.272;8.052;2023-08-12T07:52:40;22.30;96.90
40960;DHT22;27842;52.272;8.052;2023-08-12T07:55:06;22.40;97.10
40960;DHT22;27842;52.272;8.052;2023-08-12T07:57:31;22.40;97.10
40960;DHT22;27842;52.272;8.052;2023-08-12T07:59:57;22.30;97.40
40960;DHT22;27842;52.272;8.052;2023-08-12T08:02:23;22.30;97.10
40960;DHT22;27842;52.272;8.052;2023-08-12T08:04:48;22.30;97.00
40960;DHT22;27842;52.272;8.052;2023-08-12T08:07:15;22.30;97.10
40960;DHT22;27842;52.272;8.052;2023-08-12T08:09:41;22.30;97.90
40960;DHT22;27842;52.272;8.052;2023-08-12T08:12:07;22.30;97.30
40960;DHT22;27842;52.272;8.052;2023-08-12T08:14:32;22.30;97.10
40960;DHT22;27842;52.272;8.052;2023-08-12T08:16:58;22.20;97.20
40960;DHT22;27842;52.272;8.052;2023-08-12T08:19:23;22.20;97.70
40960;DHT22;27842;52.272;8.052;2023-08-12T08:21:49;22.20;97.20
40960;DHT22;27842;52.272;8.052;2023-08-12T08:24:14;22.20;97.20
40960;DHT22;27842;52.272;8.052;2023-08-12T08:26:40;22.20;97.60
40960;DHT22;27842;52.272;8.052;2023-08-12T08:29:11;22.20;98.20
40960;DHT22;27842;52.272;8.052;2023-08-12T08:31:36;22.10;97.40
40960;DHT22;27842;52.272;8.052;2023-08-12T08:34:02;22.20;97.50
40960;DHT22;27842;52.272;8.052;2023-08-12T08:36:27;22.10;97.40
40960;DHT22;27842;52.272;8.052;2023-08-12T08:38:53;22.10;97.60
40960;DHT22;27842;52.272;8.052;2023-08-12T08:41:18;22.20;97.60
40960;DHT22;27842;52.272;8.052;2023-08-12T08:43:44;22.10;97.50
40960;DHT22;27842;52.272;8.052;2023-08-12T08:46:15;22.10;97.60
40960;DHT22;27842;52.272;8.052;2023-08-12T08:48:43;22.10;97.70
40960;DHT22;27842;52.272;8.052;2023-08-12T08:51:12;22.10;97.80
40960;DHT22;27842;52.272;8.052;2023-08-12T08:53:37;22.10;97.60
40960;DHT22;27842;52.272;8.052;2023-08-12T08:56:06;22.10;98.30
40960;DHT22;27842;52.272;8.052;2023-08-12T08:58:32;22.10;97.70
40960;DHT22;27842;52.272;8.052;2023-08-12T09:00:58;22.10;98.20
40960;DHT22;27842;52.272;8.052;2023-08-12T09:03:24;22.00;98.00
40960;DHT22;27842;52.272;8.052;2023-08-12T09:05:50;22.00;97.80
40960;DHT22;27842;52.272;8.052;2023-08-12T09:08:15;22.00;97.70
40960;DHT22;27842;52.272;8.052;2023-08-12T09:10:42;22.10;97.70
40960;DHT22;27842;52.272;8.052;2023-08-12T09:13:07;22.10;98.30
40960;DHT22;27842;52.272;8.052;2023-08-12T09:15:34;22.10;97.90
40960;DHT22;27842;52.272;8.052;2023-08-12T09:17:59;22.10;97.90
40960;DHT22;27842;52.272;8.052;2023-08-12T09:20:25;22.10;98.60
40960;DHT22;27842;52.272;8.052;2023-08-12T09:22:57;22.10;98.00
40960;DHT22;27842;52.272;8.052;2023-08-12T09:25:25;22.10;98.40
40960;DHT22;27842;52.272;8.052;2023-08-12T09:27:50;22.10;97.80
40960;DHT22;27842;52.272;8.052;2023-08-12T09:30:16;22.10;98.00
40960;DHT22;27842;52.272;8.052;2023-08-12T09:32:41;22.10;97.80
40960;DHT22;27842;52.272;8.052;2023-08-12T09:35:19;22.10;98.10
40960;DHT22;27842;52.272;8.052;2023-08-12T09:37:45;22.10;98.60
40960;DHT22;27842;52.272;8.052;2023-08-12T09:40:10;22.10;98.70
40960;DHT22;27842;52.272;8.052;2023-08-12T09:42:42;22.10;99.90
40960;DHT22;27842;52.272;8.052;2023-08-12T09:45:09;22.00;98.70
40960;DHT22;27842;52.272;8.052;2023-08-12T09:47:35;22.00;98.70
40960;DHT22;27842;52.272;8.052;2023-08-12T09:50:00;22.00;97.90
40960;DHT22;27842;52.272;8.052;2023-08-12T09:52:27;22.00;97.90
40960;DHT22;27842;52.272;8.052;2023-08-12T09:54:52;22.00;98.30
40960;DHT22;27842;52.272;8.052;2023-08-12T09:57:20;22.00;98.00
40960;DHT22;27842;52.272;8.052;2023-08-12T09:59:48;22.00;98.50
40960;DHT22;27842;52.272;8.052;2023-08-12T10:02:14;22.00;99.00
40960;DHT22;27842;52.272;8.052;2023-08-12T10:04:44;22.00;98.70
40960;DHT22;27842;52.272;8.052;2023-08-12T10:07:10;22.00;98.60
40960;DHT22;27842;52.272;8.052;2023-08-12T10:09:38;22.00;99.90
40960;DHT22;27842;52.272;8.052;2023-08-12T10:12:04;22.00;99.90
40960;DHT22;27842;52.272;8.052;2023-08-12T10:14:30;21.90;99.40
40960;DHT22;27842;52.272;8.052;2023-08-12T10:16:56;21.90;99.00
40960;DHT22;27842;52.272;8.052;2023-08-12T10:19:22;22.00;99.90
40960;DHT22;27842;52.272;8.052;2023-08-12T10:21:48;21.90;99.80
40960;DHT22;27842;52.272;8.052;2023-08-12T10:24:14;21.90;99.40
40960;DHT22;27842;52.272;8.052;2023-08-12T10:26:41;22.00;99.50
40960;DHT22;27842;52.272;8.052;2023-08-12T10:29:07;22.00;99.40
40960;DHT22;27842;52.272;8.052;2023-08-12T10:31:33;22.00;99.30
40960;DHT22;27842;52.272;8.052;2023-08-12T10:33:58;22.10;99.40
40960;DHT22;27842;52.272;8.052;2023-08-12T10:36:25;22.00;99.90
40960;DHT22;27842;52.272;8.052;2023-08-12T10:38:51;22.00;99.70
40960;DHT22;27842;52.272;8.052;2023-08-12T10:41:21;22.00;99.80
40960;DHT22;27842;52.272;8.052;2023-08-12T10:43:58;22.00;99.70
40960;DHT22;27842;52.272;8.052;2023-08-12T10:46:29;22.00;99.80
40960;DHT22;27842;52.272;8.052;2023-08-12T10:48:59;22.00;99.90
40960;DHT22;27842;52.272;8.052;2023-08-12T11:05:35;22.10;99.90
40960;DHT22;27842;52.272;8.052;2023-08-12T11:10:05;22.00;99.70
40960;DHT22;27842;52.272;8.052;2023-08-12T11:12:32;22.00;99.80
40960;DHT22;27842;52.272;8.052;2023-08-12T11:14:58;22.10;99.90
40960;DHT22;27842;52.272;8.052;2023-08-12T11:17:32;22.10;99.90
40960;DHT22;27842;52.272;8.052;2023-08-12T11:19:58;22.10;99.90
40960;DHT22;27842;52.272;8.052;2023-08-12T11:22:24;22.00;99.80
40960;DHT22;27842;52.272;8.052;2023-08-12T11:24:50;22.00;99.90
40960;DHT22;27842;52.272;8.052;2023-08-12T11:27:15;22.00;99.60
40960;DHT22;27842;52.272;8.052;2023-08-12T11:29:41;22.00;99.60
40960;DHT22;27842;52.272;8.052;2023-08-12T11:32:06;22.00;99.60
40960;DHT22;27842;52.272;8.052;2023-08-12T11:34:32;22.00;99.60
40960;DHT22;27842;52.272;8.052;2023-08-12T11:36:58;22.00;99.90
40960;DHT22;27842;52.272;8.052;2023-08-12T11:39:24;22.00;99.90
40960;DHT22;27842;52.272;8.052;2023-08-12T11:41:49;22.00;99.90
40960;DHT22;27842;52.272;8.052;2023-08-12T11:44:16;22.00;99.90
40960;DHT22;27842;52.272;8.052;2023-08-12T11:46:42;22.00;99.90
40960;DHT22;27842;52.272;8.052;2023-08-12T11:49:07;22.00;99.90
40960;DHT22;27842;52.272;8.052;2023-08-12T11:51:33;22.00;99.90
40960;DHT22;27842;52.272;8.052;2023-08-12T11:53:59;21.90;99.90
40960;DHT22;27842;52.272;8.052;2023-08-12T11:56:25;22.00;99.90
40960;DHT22;27842;52.272;8.052;2023-08-12T11:58:51;22.00;99.90
40960;DHT22;27842;52.272;8.052;2023-08-12T12:01:17;22.00;99.90
40960;DHT22;27842;52.272;8.052;2023-08-12T12:03:42;22.00;99.90
40960;DHT22;27842;52.272;8.052;2023-08-12T12:06:08;22.10;99.90
40960;DHT22;27842;52.272;8.052;2023-08-12T12:08:33;22.10;99.90
40960;DHT22;27842;52.272;8.052;2023-08-12T12:11:06;22.30;99.90
40960;DHT22;27842;52.272;8.052;2023-08-12T12:13:31;22.40;99.90
40960;DHT22;27842;52.272;8.052;2023-08-12T12:15:57;22.60;99.90
40960;DHT22;27842;52.272;8.052;2023-08-12T12:18:24;22.70;99.90
40960;DHT22;27842;52.272;8.052;2023-08-12T12:20:54;22.80;99.90
40960;DHT22;27842;52.272;8.052;2023-08-12T12:23:21;22.90;99.90
40960;DHT22;27842;52.272;8.052;2023-08-12T12:25:46;22.90;99.90
40960;DHT22;27842;52.272;8.052;2023-08-12T12:28:12;22.90;99.90
40960;DHT22;27842;52.272;8.052;2023-08-12T12:30:38;22.80;99.90
40960;DHT22;27842;52.272;8.052;2023-08-12T12:33:03;22.80;99.90
40960;DHT22;27842;52.272;8.052;2023-08-12T12:35:29;22.80;99.90
40960;DHT22;27842;52.272;8.052;2023-08-12T12:37:55;22.70;99.90
40960;DHT22;27842;52.272;8.052;2023-08-12T12:40:20;22.70;99.90
40960;DHT22;27842;52.272;8.052;2023-08-12T12:42:46;22.80;99.90
40960;DHT22;27842;52.272;8.052;2023-08-12T12:45:11;22.80;99.90
40960;DHT22;27842;52.272;8.052;2023-08-12T12:47:37;22.80;99.90
40960;DHT22;27842;52.272;8.052;2023-08-12T12:50:03;22.80;99.90
40960;DHT22;27842;52.272;8.052;2023-08-12T12:52:28;22.80;99.90
40960;DHT22;27842;52.272;8.052;2023-08-12T12:54:57;22.80;99.90
40960;DHT22;27842;52.272;8.052;2023-08-12T12:57:22;22.80;99.90
40960;DHT22;27842;52.272;8.052;2023-08-12T12:59:48;22.80;99.90
40960;DHT22;27842;52.272;8.052;2023-08-12T13:02:14;23.00;99.90
40960;DHT22;27842;52.272;8.052;2023-08-12T13:04:39;23.00;99.90
40960;DHT22;27842;52.272;8.052;2023-08-12T13:07:04;23.00;99.90
40960;DHT22;27842;52.272;8.052;2023-08-12T13:09:30;23.10;99.90
40960;DHT22;27842;52.272;8.052;2023-08-12T13:11:56;23.10;99.90
40960;DHT22;27842;52.272;8.052;2023-08-12T13:14:22;23.10;99.90
40960;DHT22;27842;52.272;8.052;2023-08-12T13:16:48;23.10;99.90
40960;DHT22;27842;52.272;8.052;2023-08-12T13:19:13;23.10;99.90
40960;DHT22;27842;52.272;8.052;2023-08-12T13:21:39;23.20;99.90
40960;DHT22;27842;52.272;8.052;2023-08-12T13:24:05;23.30;99.90
40960;DHT22;27842;52.272;8.052;2023-08-12T13:26:30;23.30;99.90
40960;DHT22;27842;52.272;8.052;2023-08-12T13:28:56;23.40;99.90
40960;DHT22;27842;52.272;8.052;2023-08-12T13:31:21;23.50;99.90
40960;DHT22;27842;52.272;8.052;2023-08-12T13:33:47;23.50;99.90
40960;DHT22;27842;52.272;8.052;2023-08-12T13:36:12;23.50;99.90
40960;DHT22;27842;52.272;8.052;2023-08-12T13:38:38;23.70;99.90
40960;DHT22;27842;52.272;8.052;2023-08-12T13:41:03;23.80;99.90
40960;DHT22;27842;52.272;8.052;2023-08-12T13:43:29;23.80;99.90
40960;DHT22;27842;52.272;8.052;2023-08-12T13:45:55;24.00;99.90
40960;DHT22;27842;52.272;8.052;2023-08-12T13:48:21;24.00;99.90
40960;DHT22;27842;52.272;8.052;2023-08-12T13:50:46;24.00;99.90
40960;DHT22;27842;52.272;8.052;2023-08-12T13:53:14;24.00;99.70
40960;DHT22;27842;52.272;8.052;2023-08-12T13:55:40;24.00;99.70
40960;DHT22;27842;52.272;8.052;2023-08-12T13:58:06;24.00;99.90
40960;DHT22;27842;52.272;8.052;2023-08-12T14:00:31;24.00;99.80
40960;DHT22;27842;52.272;8.052;2023-08-12T14:02:57;24.00;99.60
40960;DHT22;27842;52.272;8.052;2023-08-12T14:05:23;23.90;99.70
40960;DHT22;27842;52.272;8.052;2023-08-12T14:07:50;23.90;99.80
40960;DHT22;27842;52.272;8.052;2023-08-12T14:10:15;23.80;99.90
40960;DHT22;27842;52.272;8.052;2023-08-12T14:12:41;23.80;99.90
40960;DHT22;27842;52.272;8.052;2023-08-12T14:15:07;23.80;99.70
40960;DHT22;27842;52.272;8.052;2023-08-12T14:17:32;23.80;99.70
40960;DHT22;27842;52.272;8.052;2023-08-12T14:19:58;23.80;99.80
40960;DHT22;27842;52.272;8.052;2023-08-12T14:22:25;23.80;99.50
40960;DHT22;27842;52.272;8.052;2023-08-12T14:24:50;23.80;99.50
40960;DHT22;27842;52.272;8.052;2023-08-12T14:27:16;23.70;99.30
40960;DHT22;27842;52.272;8.052;2023-08-12T14:29:43;23.70;99.40
40960;DHT22;27842;52.272;8.052;2023-08-12T14:32:08;23.60;99.40
40960;DHT22;27842;52.272;8.052;2023-08-12T14:34:34;23.60;99.40
40960;DHT22;27842;52.272;8.052;2023-08-12T14:37:01;23.50;99.50
40960;DHT22;27842;52.272;8.052;2023-08-12T14:39:27;23.50;99.60
40960;DHT22;27842;52.272;8.052;2023-08-12T14:41:52;23.60;99.60
40960;DHT22;27842;52.272;8.052;2023-08-12T14:44:18;23.70;99.60
40960;DHT22;27842;52.272;8.052;2023-08-12T14:46:43;23.80;99.40
40960;DHT22;27842;52.272;8.052;2023-08-12T14:49:08;23.90;99.20
40960;DHT22;27842;52.272;8.052;2023-08-12T14:51:34;23.90;99.10
40960;DHT22;27842;52.272;8.052;2023-08-12T14:53:59;23.90;99.10
40960;DHT22;27842;52.272;8.052;2023-08-12T14:56:25;23.90;99.20
40960;DHT22;27842;52.272;8.052;2023-08-12T14:58:50;23.90;99.10
40960;DHT22;27842;52.272;8.052;2023-08-12T15:01:16;23.80;98.80
40960;DHT22;27842;52.272;8.052;2023-08-12T15:03:41;23.80;99.00
40960;DHT22;27842;52.272;8.052;2023-08-12T15:06:07;23.80;98.90
40960;DHT22;27842;52.272;8.052;2023-08-12T15:08:32;23.80;98.90
40960;DHT22;27842;52.272;8.052;2023-08-12T15:10:58;23.80;98.70
40960;DHT22;27842;52.272;8.052;2023-08-12T15:13:24;23.70;98.80
40960;DHT22;27842;52.272;8.052;2023-08-12T15:15:50;23.70;99.00
40960;DHT22;27842;52.272;8.052;2023-08-12T15:18:16;23.80;98.80
40960;DHT22;27842;52.272;8.052;2023-08-12T15:20:41;23.80;98.70
40960;DHT22;27842;52.272;8.052;2023-08-12T15:23:07;23.80;98.70
40960;DHT22;27842;52.272;8.052;2023-08-12T15:25:32;23.80;98.60
40960;DHT22;27842;52.272;8.052;2023-08-12T15:27:58;23.70;98.70
40960;DHT22;27842;52.272;8.052;2023-08-12T15:30:23;23.60;98.60
40960;DHT22;27842;52.272;8.052;2023-08-12T15:32:49;23.60;98.60
40960;DHT22;27842;52.272;8.052;2023-08-12T15:35:15;23.50;98.70
40960;DHT22;27842;52.272;8.052;2023-08-12T15:37:40;23.50;98.80